Time;durP1;ratioP1;P1;durP2;ratioP2;P2;SDS_P1;SDS_P2;PMS_P1;PMS_P2;Temp;Humidity;BMP_temperature;BMP_pressure;BME280_temperature;BME280_humidity;BME280_pressure;Samples;Min_cycle;Max_cycle;Signal;HPM_P1;HPM_P2
2022/01/27 00:01:48;;;;;;;43.85;22.27;;;2.10;77.10;;;;;;5026182;28;20208;-66
2022/01/27 00:04:19;;;;;;;42.53;21.05;;;2.10;76.90;;;;;;5028232;28;20191;-66
2022/01/27 00:06:46;;;;;;;51.38;24.80;;;2.10;77.30;;;;;;5028416;28;20794;-66
2022/01/27 00:09:20;;;;;;;48.03;22.73;;;2.10;77.80;;;;;;5027989;28;20191;-66
2022/01/27 00:11:48;;;;;;;39.65;21.10;;;2.10;78.00;;;;;;5028561;28;20522;-66
2022/01/27 00:14:19;;;;;;;47.17;23.10;;;2.10;78.00;;;;;;5027991;28;20251;-66
2022/01/27 00:16:56;;;;;;;37.92;21.33;;;2.00;78.10;;;;;;5029046;28;20191;-67
2022/01/27 00:19:23;;;;;;;34.78;19.20;;;2.00;78.20;;;;;;5029368;28;20187;-66
2022/01/27 00:21:51;;;;;;;43.33;20.77;;;1.90;78.40;;;;;;5029599;28;20294;-66
2022/01/27 00:24:18;;;;;;;42.28;21.08;;;1.80;78.80;;;;;;5029627;28;20202;-66
2022/01/27 00:26:46;;;;;;;35.95;18.30;;;1.60;79.40;;;;;;5029643;28;20219;-66
2022/01/27 00:29:13;;;;;;;33.97;19.55;;;1.50;80.00;;;;;;5029055;28;20241;-72
2022/01/27 00:31:41;;;;;;;39.00;21.00;;;1.50;80.50;;;;;;5029637;28;20700;-66
2022/01/27 00:34:10;;;;;;;35.92;18.58;;;1.40;80.60;;;;;;5029255;28;20664;-66
2022/01/27 00:36:37;;;;;;;40.00;20.17;;;1.30;81.30;;;;;;5029694;28;20364;-66
2022/01/27 00:39:04;;;;;;;40.08;18.70;;;1.30;81.70;;;;;;5029496;28;20268;-66
2022/01/27 00:41:32;;;;;;;38.72;18.80;;;1.20;80.60;;;;;;5029565;28;20193;-66
2022/01/27 00:44:00;;;;;;;39.35;20.58;;;1.10;80.90;;;;;;5029320;28;20278;-66
2022/01/27 00:46:30;;;;;;;37.53;18.65;;;1.00;81.90;;;;;;5028522;28;20219;-66
2022/01/27 00:49:00;;;;;;;42.78;18.48;;;0.90;82.90;;;;;;5029572;28;20191;-66
2022/01/27 00:51:34;;;;;;;41.13;16.80;;;0.90;81.90;;;;;;5028914;28;20188;-66
2022/01/27 00:54:06;;;;;;;27.73;18.98;;;0.80;82.20;;;;;;5029520;28;20566;-66
2022/01/27 00:56:43;;;;;;;35.63;16.77;;;0.80;81.80;;;;;;5028957;28;20587;-66
2022/01/27 00:59:28;;;;;;;28.00;15.32;;;0.70;82.30;;;;;;5029012;28;20194;-66
2022/01/27 01:02:04;;;;;;;28.75;16.52;;;0.70;82.00;;;;;;5028968;28;20223;-66
2022/01/27 01:04:35;;;;;;;27.25;16.75;;;0.70;80.70;;;;;;5028651;28;20202;-66
2022/01/27 01:07:06;;;;;;;27.77;16.27;;;0.70;80.90;;;;;;5028926;28;20306;-66
2022/01/27 01:15:17;;;;;;;28.83;16.13;;;0.80;79.80;;;;;;5023974;28;20588;-66
2022/01/27 01:17:55;;;;;;;30.63;15.48;;;0.70;80.50;;;;;;5029107;28;20326;-66
2022/01/27 01:31:45;;;;;;;26.02;15.57;;;0.80;80.20;;;;;;5028905;28;20651;-66
2022/01/27 01:34:17;;;;;;;27.70;16.63;;;0.70;80.10;;;;;;5012215;28;20195;-66
2022/01/27 01:36:54;;;;;;;26.90;15.98;;;0.70;80.50;;;;;;5012993;28;20199;-66
2022/01/27 01:39:25;;;;;;;21.58;14.32;;;0.70;80.70;;;;;;5031966;28;20206;-66
2022/01/27 01:41:52;;;;;;;21.65;14.48;;;0.70;80.20;;;;;;5031544;28;20192;-66
2022/01/27 01:44:25;;;;;;;31.70;15.30;;;0.70;79.70;;;;;;5031931;28;20191;-66
2022/01/27 01:46:53;;;;;;;24.95;15.57;;;0.80;79.70;;;;;;5031028;28;20223;-72
2022/01/27 01:49:22;;;;;;;31.13;16.05;;;0.60;79.60;;;;;;5031329;28;20347;-67
2022/01/27 01:51:50;;;;;;;25.58;15.80;;;0.60;79.50;;;;;;5031241;28;20222;-66
2022/01/27 01:54:17;;;;;;;33.55;16.85;;;0.40;80.50;;;;;;5031503;28;20225;-66
2022/01/27 01:56:47;;;;;;;25.23;15.43;;;0.40;80.90;;;;;;5030883;28;20240;-66
2022/01/27 01:59:14;;;;;;;29.42;15.82;;;0.40;81.00;;;;;;5031238;28;20196;-66
2022/01/27 02:01:47;;;;;;;29.67;16.23;;;0.40;80.90;;;;;;5030820;28;20251;-67
2022/01/27 02:04:19;;;;;;;26.38;14.57;;;0.40;79.70;;;;;;5030678;28;20192;-66
2022/01/27 02:06:51;;;;;;;24.48;14.77;;;0.30;79.50;;;;;;5030721;28;20218;-66
2022/01/27 02:09:28;;;;;;;25.48;15.52;;;0.20;79.60;;;;;;5031375;28;20191;-66
2022/01/27 02:20:13;;;;;;;26.67;15.75;;;0.10;79.90;;;;;;5030860;28;20221;-66
2022/01/27 02:22:41;;;;;;;31.73;18.27;;;0.10;79.60;;;;;;5030578;28;20202;-66
2022/01/27 02:25:09;;;;;;;29.27;16.67;;;0.00;79.50;;;;;;5030878;28;20195;-66
2022/01/27 02:27:37;;;;;;;27.45;17.15;;;-0.10;79.60;;;;;;5030419;28;20693;-66
2022/01/27 02:30:06;;;;;;;23.42;15.43;;;-0.10;79.50;;;;;;5030526;28;20191;-66
2022/01/27 02:32:33;;;;;;;25.88;15.20;;;-0.10;79.20;;;;;;5030278;28;20583;-66
2022/01/27 02:35:01;;;;;;;25.08;14.30;;;-0.10;79.00;;;;;;5030582;28;20212;-66
2022/01/27 02:37:30;;;;;;;29.00;16.67;;;-0.10;78.60;;;;;;5030086;28;20199;-66
2022/01/27 02:39:57;;;;;;;28.65;14.82;;;-0.10;78.20;;;;;;5030588;28;20713;-67
2022/01/27 02:42:30;;;;;;;23.45;14.18;;;-0.10;78.00;;;;;;5030059;28;20206;-66
2022/01/27 02:45:04;;;;;;;26.63;17.10;;;-0.10;78.10;;;;;;5029052;28;20675;-66
2022/01/27 02:47:33;;;;;;;26.60;15.50;;;-0.10;77.90;;;;;;5029922;28;20668;-66
2022/01/27 02:50:00;;;;;;;25.67;15.27;;;-0.20;78.00;;;;;;5030154;28;20191;-66
2022/01/27 02:52:29;;;;;;;26.70;15.30;;;-0.20;77.80;;;;;;5029563;28;20188;-66
2022/01/27 02:55:06;;;;;;;20.48;15.25;;;-0.20;77.70;;;;;;5030443;28;20187;-66
2022/01/27 02:57:34;;;;;;;21.95;13.85;;;-0.20;78.20;;;;;;5030009;28;20191;-66
2022/01/27 03:00:01;;;;;;;24.83;14.70;;;-0.20;78.60;;;;;;5030041;28;20807;-66
2022/01/27 03:02:28;;;;;;;23.98;14.23;;;-0.30;78.30;;;;;;5029227;28;20199;-66
2022/01/27 03:04:56;;;;;;;23.23;13.70;;;-0.30;78.10;;;;;;5029999;28;20646;-66
2022/01/27 03:07:23;;;;;;;20.98;13.55;;;-0.30;78.30;;;;;;5029509;28;20215;-66
2022/01/27 03:09:54;;;;;;;22.95;14.52;;;-0.30;78.50;;;;;;5029972;28;20268;-66
2022/01/27 03:12:29;;;;;;;27.02;15.32;;;-0.20;78.60;;;;;;5030325;28;20557;-66
2022/01/27 03:15:07;;;;;;;21.58;13.98;;;-0.20;78.40;;;;;;5029649;28;20286;-66
2022/01/27 03:17:34;;;;;;;21.73;15.48;;;-0.20;78.40;;;;;;5029775;28;20291;-67
2022/01/27 03:20:02;;;;;;;20.98;12.77;;;-0.20;78.10;;;;;;5029456;28;20191;-66
2022/01/27 03:22:29;;;;;;;24.60;14.70;;;-0.20;77.90;;;;;;5029591;28;20200;-66
2022/01/27 03:24:58;;;;;;;25.65;14.57;;;-0.20;77.10;;;;;;5029099;28;20645;-66
2022/01/27 03:27:27;;;;;;;22.88;14.70;;;-0.30;77.20;;;;;;5029478;28;20300;-66
2022/01/27 03:29:55;;;;;;;26.38;13.90;;;-0.30;77.20;;;;;;5029066;28;20183;-66
2022/01/27 03:32:25;;;;;;;24.75;14.98;;;-0.30;77.00;;;;;;5029266;28;20549;-66
2022/01/27 03:34:52;;;;;;;25.30;14.80;;;-0.40;76.90;;;;;;5028977;28;20646;-66
2022/01/27 03:37:22;;;;;;;31.55;16.17;;;-0.40;76.90;;;;;;5029342;28;20191;-66
2022/01/27 03:39:50;;;;;;;29.33;16.75;;;-0.50;76.20;;;;;;5028920;28;20179;-66
2022/01/27 03:42:18;;;;;;;30.63;16.98;;;-0.60;76.20;;;;;;5028842;28;20275;-66
2022/01/27 03:44:46;;;;;;;28.58;15.95;;;-0.70;76.90;;;;;;5028314;28;20183;-66
2022/01/27 03:47:13;;;;;;;30.95;15.63;;;-0.80;76.50;;;;;;5028662;28;20635;-66
2022/01/27 03:49:40;;;;;;;21.42;12.93;;;-0.90;77.20;;;;;;5029182;28;20198;-66
2022/01/27 03:52:08;;;;;;;27.88;14.80;;;-0.90;77.00;;;;;;5028628;28;20184;-66
2022/01/27 03:54:48;;;;;;;27.90;14.90;;;-0.90;76.90;;;;;;5029170;28;20191;-66
2022/01/27 03:57:16;;;;;;;23.95;14.05;;;-0.90;77.30;;;;;;5028615;28;20187;-68
2022/01/27 03:59:44;;;;;;;29.48;15.68;;;-0.90;77.50;;;;;;5029404;28;20191;-66
2022/01/27 04:02:12;;;;;;;29.20;14.98;;;-0.90;77.40;;;;;;5029000;28;20223;-66
2022/01/27 04:04:39;;;;;;;28.73;14.70;;;-0.90;77.60;;;;;;5029341;28;20226;-66
2022/01/27 04:07:06;;;;;;;19.52;14.25;;;-1.00;77.40;;;;;;5029397;28;20211;-66
2022/01/27 04:09:33;;;;;;;21.27;12.32;;;-1.00;77.30;;;;;;5029182;28;20624;-66
2022/01/27 04:12:01;;;;;;;22.05;14.15;;;-1.00;77.70;;;;;;5028972;28;20274;-66
2022/01/27 04:14:28;;;;;;;20.38;12.55;;;-1.00;77.60;;;;;;5029152;28;20278;-66
2022/01/27 04:16:57;;;;;;;22.88;14.25;;;-1.10;77.70;;;;;;5028833;28;20262;-66
2022/01/27 04:19:24;;;;;;;24.05;14.02;;;-1.10;77.90;;;;;;5028861;28;20206;-66
2022/01/27 04:21:52;;;;;;;21.92;12.90;;;-1.10;77.20;;;;;;5028644;28;20263;-66
2022/01/27 04:24:20;;;;;;;26.92;12.50;;;-1.10;77.50;;;;;;5028733;28;20226;-66
2022/01/27 04:26:52;;;;;;;21.10;12.40;;;-1.20;76.80;;;;;;5028635;28;20520;-68
2022/01/27 04:29:22;;;;;;;20.38;12.60;;;-1.20;76.40;;;;;;5028855;28;20331;-66
2022/01/27 04:31:50;;;;;;;18.58;12.50;;;-1.40;76.80;;;;;;5028532;28;20207;-66
2022/01/27 04:34:19;;;;;;;24.88;14.63;;;-1.50;76.70;;;;;;5028952;28;20195;-66
2022/01/27 04:36:46;;;;;;;20.08;12.13;;;-1.50;76.70;;;;;;5028225;28;20274;-66
2022/01/27 04:39:19;;;;;;;28.63;14.50;;;-1.50;77.40;;;;;;5028748;28;20195;-68
2022/01/27 04:41:52;;;;;;;19.30;12.25;;;-1.50;76.70;;;;;;5028208;28;20195;-66
2022/01/27 04:44:26;;;;;;;20.23;13.68;;;-1.60;77.10;;;;;;5028747;28;20883;-66
2022/01/27 04:46:59;;;;;;;21.20;13.32;;;-1.70;77.10;;;;;;5027751;28;20215;-67
2022/01/27 04:49:28;;;;;;;24.77;14.20;;;-1.70;77.40;;;;;;5028368;28;20203;-67
2022/01/27 04:51:55;;;;;;;24.75;15.90;;;-1.70;78.30;;;;;;5028264;28;20191;-67
2022/01/27 04:54:27;;;;;;;25.13;14.60;;;-1.60;78.30;;;;;;5027932;28;20202;-66
2022/01/27 04:56:59;;;;;;;30.98;15.68;;;-1.70;78.50;;;;;;5028441;28;20187;-66
2022/01/27 04:59:30;;;;;;;28.80;14.98;;;-1.60;78.80;;;;;;5028187;28;20544;-66
2022/01/27 05:02:02;;;;;;;33.00;16.95;;;-1.70;78.80;;;;;;5028715;28;20191;-66
2022/01/27 05:04:34;;;;;;;27.67;15.13;;;-1.60;78.70;;;;;;5028336;28;20188;-66
2022/01/27 05:07:02;;;;;;;28.52;17.50;;;-1.60;77.40;;;;;;5027355;28;20680;-67
2022/01/27 05:09:29;;;;;;;25.52;16.30;;;-1.70;77.10;;;;;;5028193;28;20601;-66
2022/01/27 05:12:07;;;;;;;25.88;16.08;;;-1.80;77.80;;;;;;5028534;28;20199;-67
2022/01/27 05:14:34;;;;;;;27.67;16.50;;;-1.80;77.30;;;;;;5027991;28;20191;-66
2022/01/27 05:17:01;;;;;;;22.50;14.50;;;-1.80;77.30;;;;;;5028395;28;20228;-67
2022/01/27 05:19:32;;;;;;;28.27;15.70;;;-1.80;77.30;;;;;;5027821;28;20247;-66
2022/01/27 05:22:00;;;;;;;28.23;16.98;;;-1.80;77.20;;;;;;5028212;28;20668;-66
2022/01/27 05:24:27;;;;;;;27.40;15.07;;;-1.90;77.20;;;;;;5027563;28;20569;-67
2022/01/27 05:26:55;;;;;;;29.35;15.60;;;-1.90;77.30;;;;;;5028330;28;20278;-66
2022/01/27 05:29:22;;;;;;;19.38;13.65;;;-1.90;77.30;;;;;;5027707;28;20220;-67
2022/01/27 05:31:54;;;;;;;23.05;14.85;;;-2.00;77.30;;;;;;5027793;28;20194;-66
2022/01/27 05:34:21;;;;;;;24.10;15.48;;;-2.00;77.60;;;;;;5028019;28;20215;-66
2022/01/27 05:36:53;;;;;;;21.20;14.50;;;-2.00;77.60;;;;;;5028115;28;20688;-66
2022/01/27 05:39:20;;;;;;;19.00;11.88;;;-2.00;77.90;;;;;;5027869;28;20645;-67
2022/01/27 05:41:47;;;;;;;22.85;14.23;;;-1.90;77.80;;;;;;5028031;28;20227;-66
2022/01/27 05:44:15;;;;;;;31.45;18.08;;;-1.90;77.30;;;;;;5027326;28;20195;-66
2022/01/27 05:46:42;;;;;;;37.17;19.98;;;-1.90;77.10;;;;;;5027609;28;20708;-66
2022/01/27 05:49:09;;;;;;;35.85;20.85;;;-1.90;77.30;;;;;;5027559;28;20571;-66
2022/01/27 05:51:37;;;;;;;32.95;18.73;;;-1.90;77.50;;;;;;5027574;28;20184;-66
2022/01/27 05:54:05;;;;;;;31.02;19.27;;;-1.90;77.70;;;;;;5027960;28;20187;-66
2022/01/27 05:56:33;;;;;;;28.63;16.83;;;-1.80;78.30;;;;;;5027338;28;20188;-66
2022/01/27 05:59:00;;;;;;;20.52;14.30;;;-1.80;78.10;;;;;;5027773;28;20195;-66
2022/01/27 06:01:27;;;;;;;24.65;14.02;;;-1.70;78.60;;;;;;5027371;28;20550;-67
2022/01/27 06:03:54;;;;;;;21.55;15.38;;;-1.70;77.60;;;;;;5028015;28;20252;-66
2022/01/27 06:06:21;;;;;;;25.30;15.10;;;-1.70;78.30;;;;;;5027089;28;20187;-67
2022/01/27 06:08:52;;;;;;;27.40;15.98;;;-1.60;78.70;;;;;;5027891;28;20223;-66
2022/01/27 06:11:20;;;;;;;26.70;15.90;;;-1.70;77.30;;;;;;5027432;28;20264;-66
2022/01/27 06:13:48;;;;;;;26.15;16.05;;;-1.60;78.00;;;;;;5028138;28;20195;-66
2022/01/27 06:16:15;;;;;;;35.35;19.55;;;-1.60;77.70;;;;;;5027686;28;20198;-67
2022/01/27 06:18:42;;;;;;;23.70;14.27;;;-1.60;77.00;;;;;;5028705;28;20199;-66
2022/01/27 06:21:12;;;;;;;23.00;14.30;;;-1.50;76.60;;;;;;5030859;28;20240;-66
2022/01/27 06:23:43;;;;;;;19.30;13.60;;;-1.50;76.50;;;;;;5030240;27;20217;-68
2022/01/27 06:26:11;;;;;;;26.58;14.40;;;-1.50;76.50;;;;;;5029601;28;20918;-66
2022/01/27 06:28:40;;;;;;;19.45;13.27;;;-1.40;76.10;;;;;;5030732;28;20253;-66
2022/01/27 06:31:07;;;;;;;25.25;13.60;;;-1.40;76.10;;;;;;5027562;28;20191;-66
2022/01/27 06:33:35;;;;;;;22.30;13.57;;;-1.40;76.10;;;;;;5029136;28;20610;-66
2022/01/27 06:36:02;;;;;;;23.00;13.93;;;-1.40;75.30;;;;;;5029083;28;20241;-66
2022/01/27 06:38:29;;;;;;;33.05;19.45;;;-1.40;75.30;;;;;;5028360;28;20270;-67
2022/01/27 06:40:57;;;;;;;31.27;16.25;;;-1.40;74.70;;;;;;5028454;28;20662;-68
2022/01/27 06:43:24;;;;;;;22.30;13.88;;;-1.50;74.30;;;;;;5028785;28;20223;-67
2022/01/27 06:45:53;;;;;;;30.90;17.67;;;-1.50;74.00;;;;;;5028734;28;20183;-66
2022/01/27 06:48:20;;;;;;;30.83;17.15;;;-1.50;74.00;;;;;;5029307;28;20347;-66
2022/01/27 06:50:53;;;;;;;29.63;17.27;;;-1.50;74.10;;;;;;5029134;28;20194;-66
2022/01/27 06:53:21;;;;;;;29.58;16.42;;;-1.50;73.50;;;;;;5029009;28;20188;-66
2022/01/27 06:55:48;;;;;;;27.60;16.00;;;-1.60;73.50;;;;;;5029141;28;20718;-68
2022/01/27 06:58:15;;;;;;;26.23;16.67;;;-1.60;73.00;;;;;;5028553;28;20240;-66
2022/01/27 07:00:43;;;;;;;23.77;16.10;;;-1.70;72.90;;;;;;5028494;28;20210;-67
2022/01/27 07:03:11;;;;;;;27.17;16.60;;;-1.70;72.90;;;;;;5028838;28;20200;-66
2022/01/27 07:05:40;;;;;;;29.88;16.15;;;-1.60;72.90;;;;;;5028959;28;20803;-66
2022/01/27 07:08:08;;;;;;;25.23;17.20;;;-1.70;73.00;;;;;;5028996;28;20219;-67
2022/01/27 07:10:35;;;;;;;25.60;16.60;;;-1.60;73.20;;;;;;5028838;28;20199;-66
2022/01/27 07:13:02;;;;;;;31.52;15.90;;;-1.60;73.50;;;;;;5028905;28;20535;-67
2022/01/27 07:15:35;;;;;;;23.38;15.48;;;-1.50;73.80;;;;;;5028322;28;20227;-66
2022/01/27 07:18:02;;;;;;;24.48;17.35;;;-1.50;73.90;;;;;;5027498;28;20188;-67
2022/01/27 07:20:30;;;;;;;19.65;13.48;;;-1.40;74.00;;;;;;5027098;28;20198;-67
2022/01/27 07:22:58;;;;;;;19.90;13.05;;;-1.30;72.60;;;;;;5028617;28;20225;-67
2022/01/27 07:25:25;;;;;;;22.23;14.70;;;-1.20;72.40;;;;;;5028970;28;20226;-69
2022/01/27 07:27:56;;;;;;;20.60;14.73;;;-1.20;72.60;;;;;;5028364;28;20198;-67
2022/01/27 07:30:23;;;;;;;23.70;14.15;;;-1.00;73.00;;;;;;5028286;28;20199;-66
2022/01/27 07:32:50;;;;;;;25.90;15.45;;;-0.80;71.90;;;;;;5028871;28;20194;-66
2022/01/27 07:35:17;;;;;;;23.52;15.80;;;-0.70;71.70;;;;;;5028367;28;20188;-67
2022/01/27 07:37:46;;;;;;;30.90;19.02;;;-0.60;72.30;;;;;;5028578;28;20318;-66
2022/01/27 07:40:14;;;;;;;29.42;19.73;;;-0.50;71.60;;;;;;5028760;28;20183;-68
2022/01/27 07:42:41;;;;;;;27.95;18.92;;;-0.30;72.80;;;;;;5028050;28;20195;-67
2022/01/27 07:45:12;;;;;;;26.10;17.40;;;0.00;73.30;;;;;;5027864;28;20187;-67
2022/01/27 07:47:39;;;;;;;23.42;14.85;;;0.40;72.60;;;;;;5028146;28;20303;-68
2022/01/27 07:50:08;;;;;;;17.50;12.63;;;0.60;72.20;;;;;;5029085;28;20228;-68
2022/01/27 07:52:35;;;;;;;20.92;11.48;;;0.90;71.00;;;;;;5028376;28;20549;-67
2022/01/27 07:55:04;;;;;;;14.88;8.50;;;1.00;69.70;;;;;;5028274;28;20233;-66
2022/01/27 07:57:31;;;;;;;18.05;9.13;;;1.30;70.70;;;;;;5029148;28;20511;-67
2022/01/27 07:59:58;;;;;;;14.15;9.05;;;1.60;69.10;;;;;;5028549;28;20252;-67
2022/01/27 08:02:26;;;;;;;13.73;8.18;;;2.00;69.60;;;;;;5027489;28;20695;-67
2022/01/27 08:04:53;;;;;;;14.30;8.82;;;2.40;69.00;;;;;;5028838;28;20219;-67
2022/01/27 08:07:20;;;;;;;29.17;13.90;;;2.90;67.80;;;;;;5028688;28;20641;-67
2022/01/27 08:09:48;;;;;;;19.40;11.82;;;3.20;67.40;;;;;;5025991;28;20622;-68
2022/01/27 08:12:16;;;;;;;19.63;11.80;;;3.60;62.80;;;;;;5023574;28;20707;-67
2022/01/27 08:14:43;;;;;;;16.00;10.20;;;3.90;63.20;;;;;;5027913;28;20707;-67
2022/01/27 08:17:10;;;;;;;15.18;10.05;;;4.20;63.00;;;;;;5027725;28;20203;-67
2022/01/27 08:19:37;;;;;;;18.73;9.25;;;4.60;59.60;;;;;;5027139;28;20609;-67
2022/01/27 08:22:04;;;;;;;20.52;11.65;;;5.10;58.60;;;;;;5027245;28;20192;-67
2022/01/27 08:24:32;;;;;;;12.43;10.45;;;5.40;57.90;;;;;;5027678;28;20203;-67
2022/01/27 08:27:05;;;;;;;16.25;10.70;;;5.80;57.20;;;;;;5027008;28;20186;-69
2022/01/27 08:29:39;;;;;;;17.40;11.02;;;5.90;55.10;;;;;;5026797;28;20218;-72
2022/01/27 08:32:10;;;;;;;17.02;10.80;;;6.20;55.00;;;;;;5026625;28;20642;-68
2022/01/27 08:34:41;;;;;;;17.08;10.52;;;6.70;55.70;;;;;;5027852;28;20194;-68
2022/01/27 08:37:11;;;;;;;16.95;13.20;;;7.10;53.70;;;;;;5027845;28;20271;-67
2022/01/27 08:39:39;;;;;;;19.27;10.52;;;7.50;55.40;;;;;;5028213;28;20260;-67
2022/01/27 08:42:08;;;;;;;13.50;10.20;;;7.90;53.80;;;;;;5026353;28;20191;-68
2022/01/27 08:44:37;;;;;;;13.05;7.18;;;8.30;53.60;;;;;;5028188;28;20278;-71
2022/01/27 08:47:11;;;;;;;10.23;7.45;;;8.60;50.00;;;;;;5027479;28;20215;-67
2022/01/27 08:49:38;;;;;;;9.63;7.38;;;8.90;50.20;;;;;;5028045;28;20219;-68
2022/01/27 08:52:06;;;;;;;10.80;9.10;;;9.40;48.70;;;;;;5029279;28;20691;-68
2022/01/27 08:54:33;;;;;;;13.90;9.50;;;9.70;47.30;;;;;;5029999;28;20184;-68
2022/01/27 08:57:00;;;;;;;10.10;6.93;;;10.00;46.80;;;;;;5027909;28;20195;-69
2022/01/27 08:59:28;;;;;;;7.93;5.40;;;10.10;46.00;;;;;;5027646;28;20217;-68
2022/01/27 09:01:57;;;;;;;6.88;5.20;;;10.30;45.80;;;;;;5028395;28;20205;-67
2022/01/27 09:04:24;;;;;;;10.32;5.18;;;10.60;44.50;;;;;;5028405;28;20554;-68
2022/01/27 09:06:52;;;;;;;7.63;5.95;;;10.90;43.60;;;;;;5028193;28;20227;-68
2022/01/27 09:09:19;;;;;;;6.90;4.47;;;11.20;43.70;;;;;;5028038;28;21095;-66
2022/01/27 09:11:46;;;;;;;7.18;3.55;;;11.30;41.20;;;;;;5027871;28;20206;-65
2022/01/27 09:14:15;;;;;;;5.72;4.45;;;11.00;40.20;;;;;;5027516;28;20191;-65
2022/01/27 09:16:44;;;;;;;5.53;3.97;;;11.30;40.90;;;;;;5026729;28;20203;-66
2022/01/27 09:19:14;;;;;;;6.40;3.47;;;11.80;39.70;;;;;;5027560;28;20195;-65
2022/01/27 09:21:44;;;;;;;6.07;3.40;;;12.10;38.10;;;;;;5027322;28;20256;-74
2022/01/27 09:24:15;;;;;;;6.03;3.72;;;12.30;38.10;;;;;;5027692;28;20199;-68
2022/01/27 09:26:51;;;;;;;5.40;3.17;;;12.60;39.50;;;;;;5028135;28;20221;-67
2022/01/27 09:29:20;;;;;;;3.95;2.45;;;12.90;37.10;;;;;;5027714;28;20314;-69
2022/01/27 09:31:48;;;;;;;10.15;3.28;;;13.20;35.90;;;;;;5027587;28;20184;-67
2022/01/27 09:34:18;;;;;;;4.43;3.17;;;13.60;36.20;;;;;;5028067;28;20222;-67
2022/01/27 09:36:47;;;;;;;4.40;2.80;;;14.10;34.40;;;;;;5027356;28;20211;-69
2022/01/27 09:39:17;;;;;;;4.82;2.97;;;14.50;33.60;;;;;;5027945;28;20284;-67
2022/01/27 09:41:44;;;;;;;5.47;3.50;;;14.90;34.30;;;;;;5027583;28;20196;-67
2022/01/27 09:44:13;;;;;;;3.63;2.93;;;15.40;33.70;;;;;;5028140;28;20209;-67
2022/01/27 09:46:43;;;;;;;4.43;2.90;;;15.90;33.80;;;;;;5026908;28;20511;-68
2022/01/27 09:49:29;;;;;;;4.50;2.80;;;16.40;33.20;;;;;;5026928;28;20486;-68
2022/01/27 09:51:57;;;;;;;3.60;1.93;;;16.90;29.60;;;;;;5027862;28;20474;-69
2022/01/27 09:54:24;;;;;;;3.70;2.53;;;17.20;28.80;;;;;;5029481;28;21295;-68
2022/01/27 09:56:56;;;;;;;4.77;2.57;;;17.70;27.00;;;;;;5031416;28;20451;-68
2022/01/27 09:59:24;;;;;;;4.07;2.30;;;18.10;26.70;;;;;;5026750;28;20473;-69
2022/01/27 10:01:57;;;;;;;3.43;2.10;;;18.30;25.30;;;;;;5029729;28;20491;-68
2022/01/27 10:04:44;;;;;;;5.33;2.03;;;18.50;24.20;;;;;;5029158;28;20449;-66
2022/01/27 10:07:14;;;;;;;9.17;4.10;;;18.60;25.10;;;;;;5030473;28;20449;-66
2022/01/27 10:09:55;;;;;;;4.47;3.37;;;19.00;24.50;;;;;;5030517;28;20492;-66
2022/01/27 10:12:28;;;;;;;8.37;3.53;;;19.60;23.60;;;;;;5030256;28;20473;-66
2022/01/27 10:15:00;;;;;;;5.10;2.10;;;19.90;22.70;;;;;;5026497;28;20442;-66
2022/01/27 10:17:29;;;;;;;3.03;1.67;;;20.40;23.90;;;;;;5030477;28;20460;-66
2022/01/27 10:19:58;;;;;;;3.90;2.03;;;21.00;22.40;;;;;;5030432;28;20998;-66
2022/01/27 10:22:25;;;;;;;3.30;1.77;;;20.80;21.30;;;;;;5029759;28;20438;-66
2022/01/27 10:25:09;;;;;;;3.87;2.30;;;21.20;21.60;;;;;;5030368;28;20461;-66
2022/01/27 10:27:56;;;;;;;4.67;2.43;;;21.70;20.30;;;;;;5030129;28;20438;-66
2022/01/27 10:33:13;;;;;;;10.70;3.03;;;22.50;19.40;;;;;;5029485;28;20434;-66
2022/01/27 10:35:42;;;;;;;2.77;1.57;;;22.80;18.80;;;;;;5028983;28;20441;-66
2022/01/27 10:38:12;;;;;;;3.20;1.70;;;23.30;18.00;;;;;;5029154;28;20514;-66
2022/01/27 10:40:41;;;;;;;4.80;1.40;;;23.30;16.30;;;;;;5028612;28;20874;-66
2022/01/27 10:43:14;;;;;;;4.30;1.20;;;23.60;18.10;;;;;;5028947;28;20940;-66
2022/01/27 10:46:05;;;;;;;5.40;1.50;;;24.50;17.00;;;;;;5027978;28;21068;-66
2022/01/27 10:48:34;;;;;;;3.73;1.47;;;25.20;16.70;;;;;;5028953;28;20460;-66
2022/01/27 10:51:08;;;;;;;3.10;1.27;;;26.00;15.90;;;;;;5028671;28;20478;-66
2022/01/27 10:53:57;;;;;;;2.30;1.40;;;26.80;15.80;;;;;;5027957;28;20528;-66
2022/01/27 10:56:26;;;;;;;2.57;1.23;;;27.80;15.00;;;;;;5028736;28;20956;-67
2022/01/27 10:58:55;;;;;;;3.60;1.40;;;28.60;14.80;;;;;;5029111;28;20442;-74
2022/01/27 11:01:27;;;;;;;4.93;1.33;;;29.40;14.10;;;;;;5028300;28;20938;-66
2022/01/27 11:03:56;;;;;;;3.73;1.50;;;29.80;12.00;;;;;;5028746;28;20465;-66
2022/01/27 11:06:27;;;;;;;4.70;1.33;;;30.00;12.50;;;;;;5028101;28;20830;-66
2022/01/27 11:08:56;;;;;;;3.00;1.30;;;30.40;11.20;;;;;;5028619;28;20449;-66
2022/01/27 11:11:26;;;;;;;3.00;1.23;;;30.60;11.70;;;;;;5028818;28;20439;-67
2022/01/27 11:13:54;;;;;;;2.77;1.20;;;31.30;12.50;;;;;;5028740;28;20446;-66
2022/01/27 11:16:29;;;;;;;4.53;2.20;;;31.50;11.40;;;;;;5025421;28;20446;-66
2022/01/27 11:19:12;;;;;;;2.93;1.60;;;32.00;12.10;;;;;;5025458;28;20533;-66
2022/01/27 11:21:44;;;;;;;4.60;2.10;;;32.70;11.00;;;;;;5028063;28;20526;-67
2022/01/27 11:24:22;;;;;;;4.50;2.30;;;33.30;11.30;;;;;;5028876;28;21010;-66
2022/01/27 11:26:54;;;;;;;3.80;2.40;;;33.70;10.70;;;;;;5027732;28;20458;-68
2022/01/27 11:29:35;;;;;;;5.50;3.03;;;33.90;10.00;;;;;;5028259;28;20983;-66
2022/01/27 11:32:16;;;;;;;5.10;2.30;;;34.00;9.30;;;;;;5027321;28;20939;-67
2022/01/27 11:34:52;;;;;;;4.00;2.20;;;33.80;9.90;;;;;;5028671;28;20438;-66
2022/01/27 11:37:33;;;;;;;5.63;2.00;;;34.00;9.60;;;;;;5028428;28;20455;-66
2022/01/27 11:40:05;;;;;;;5.87;3.53;;;34.10;9.20;;;;;;5027013;28;21089;-68
2022/01/27 11:43:04;;;;;;;3.83;1.60;;;34.30;9.20;;;;;;5025581;28;20881;-66
2022/01/27 11:45:37;;;;;;;8.97;3.27;;;34.80;9.20;;;;;;5025184;28;20438;-67
2022/01/27 11:48:10;;;;;;;4.37;1.63;;;35.20;8.60;;;;;;5028110;28;20478;-66
2022/01/27 11:50:49;;;;;;;2.53;1.10;;;35.50;9.30;;;;;;5028045;28;20449;-67
2022/01/27 11:53:35;;;;;;;2.87;1.50;;;35.70;8.30;;;;;;5027763;28;20446;-66
2022/01/27 11:56:04;;;;;;;3.77;2.13;;;35.60;7.60;;;;;;5025760;28;20435;-66
2022/01/27 11:58:32;;;;;;;2.40;1.20;;;35.70;8.30;;;;;;5027591;28;20446;-68
2022/01/27 12:01:21;;;;;;;2.60;1.47;;;35.70;7.70;;;;;;5024981;28;20482;-66
2022/01/27 12:04:08;;;;;;;2.70;1.47;;;35.70;8.10;;;;;;5028463;28;20438;-67
2022/01/27 12:06:36;;;;;;;3.30;1.20;;;35.90;7.30;;;;;;5027113;28;20445;-68
2022/01/27 12:09:31;;;;;;;2.90;1.30;;;35.90;6.90;;;;;;5028098;28;20493;-67
2022/01/27 12:12:00;;;;;;;2.87;1.47;;;35.70;7.30;;;;;;5028080;28;20445;-66
2022/01/27 12:14:49;;;;;;;4.73;1.20;;;35.50;7.20;;;;;;5027650;28;20442;-67
2022/01/27 12:17:27;;;;;;;1.90;1.00;;;35.60;7.30;;;;;;5025178;28;20449;-67
2022/01/27 12:19:57;;;;;;;1.87;0.80;;;35.50;6.70;;;;;;5028253;28;20493;-66
2022/01/27 12:22:27;;;;;;;5.63;1.30;;;35.30;7.30;;;;;;5028020;28;20466;-67
2022/01/27 12:24:58;;;;;;;2.83;0.77;;;35.00;7.10;;;;;;5026256;28;20817;-67
2022/01/27 12:27:28;;;;;;;2.03;0.90;;;34.60;7.30;;;;;;5026622;28;20944;-67
2022/01/27 12:29:56;;;;;;;3.20;0.80;;;34.20;7.40;;;;;;5027348;28;20944;-66
2022/01/27 12:32:26;;;;;;;2.43;1.00;;;34.00;7.40;;;;;;5027523;28;20536;-66
2022/01/27 12:34:55;;;;;;;2.37;1.30;;;33.90;7.40;;;;;;5027634;28;20450;-67
2022/01/27 12:37:24;;;;;;;2.10;0.77;;;33.90;7.40;;;;;;5027302;28;20454;-66
2022/01/27 12:39:53;;;;;;;1.70;0.70;;;34.10;6.90;;;;;;5027671;28;20486;-66
2022/01/27 12:42:27;;;;;;;2.43;0.87;;;33.90;7.10;;;;;;5027019;28;20517;-66
2022/01/27 12:44:57;;;;;;;2.10;1.03;;;33.50;7.00;;;;;;5028100;28;21670;-69
2022/01/27 12:47:25;;;;;;;3.60;1.10;;;33.20;7.30;;;;;;5027966;28;20528;-66
2022/01/27 12:50:03;;;;;;;2.63;0.90;;;32.90;7.60;;;;;;5028101;28;20920;-67
2022/01/27 12:52:33;;;;;;;2.10;0.97;;;32.70;7.40;;;;;;5028792;28;20456;-67
2022/01/27 12:55:01;;;;;;;2.40;0.80;;;32.60;7.40;;;;;;5027278;28;20466;-67
2022/01/27 12:57:32;;;;;;;3.83;0.90;;;32.40;7.50;;;;;;5028354;28;20810;-66
2022/01/27 13:00:07;;;;;;;1.60;0.70;;;32.00;7.30;;;;;;5027910;28;20478;-67
2022/01/27 13:02:38;;;;;;;1.60;0.70;;;31.60;7.00;;;;;;5024209;28;20442;-66
2022/01/27 13:05:08;;;;;;;3.10;0.80;;;31.10;7.40;;;;;;5026888;28;20485;-66
2022/01/27 13:07:37;;;;;;;1.70;0.70;;;30.70;7.30;;;;;;5027865;28;20446;-66
2022/01/27 13:10:10;;;;;;;1.60;0.70;;;30.40;7.80;;;;;;5027989;28;20446;-66
2022/01/27 13:12:44;;;;;;;1.60;0.60;;;29.90;7.30;;;;;;5028301;28;20822;-66
2022/01/27 13:15:17;;;;;;;2.27;0.87;;;29.20;7.60;;;;;;5027676;28;20438;-66
2022/01/27 13:17:49;;;;;;;1.80;0.60;;;28.70;7.90;;;;;;5028032;28;20522;-66
2022/01/27 13:20:25;;;;;;;2.73;1.50;;;28.10;7.90;;;;;;5027677;28;20482;-67
2022/01/27 13:22:58;;;;;;;4.13;1.53;;;27.40;8.00;;;;;;5025459;28;21353;-66